createdAt,value
2022-12-08T00:03:54.973Z,97758.88
2022-12-08T00:09:37.943Z,97744.06
2022-12-08T00:15:04.313Z,97733.47
2022-12-08T00:20:31.002Z,97724.69
2022-12-08T00:25:56.962Z,97725.72
2022-12-08T00:31:26.056Z,97721.38
2022-12-08T00:36:54.994Z,97713.56
2022-12-08T00:42:23.966Z,97702.97
2022-12-08T00:47:48.962Z,97710.19
2022-12-08T00:53:15.979Z,97707.53
2022-12-08T00:58:46.982Z,97704.66
2022-12-08T01:04:13.972Z,97694.66
2022-12-08T01:09:40.960Z,97700.56
2022-12-08T01:15:05.999Z,97699.59
2022-12-08T01:20:30.013Z,97701.28
2022-12-08T01:25:57.992Z,97689.50
2022-12-08T01:31:28.087Z,97697.09
2022-12-08T01:36:55.016Z,97696.72
2022-12-08T01:42:22.005Z,97694.81
2022-12-08T01:47:51.034Z,97686.84
2022-12-08T01:53:22.041Z,97676.72
2022-12-08T01:58:59.015Z,97676.63
2022-12-08T02:04:24.035Z,97678.31
2022-12-08T02:09:49.993Z,97678.03
2022-12-08T02:15:19.009Z,97676.13
2022-12-08T02:20:57.023Z,97671.69
2022-12-08T02:27:00.047Z,97657.09
2022-12-08T02:32:51.987Z,97647.31
2022-12-08T02:38:30.041Z,97646.56
2022-12-08T02:44:00.015Z,97654.53
2022-12-08T02:49:25.023Z,97646.56
2022-12-08T02:55:03.001Z,97640.31
2022-12-08T03:00:31.013Z,97627.78
2022-12-08T03:06:16.002Z,97634.78
2022-12-08T03:11:49.021Z,97633.56
2022-12-08T03:17:16.049Z,97621.16
2022-12-08T03:22:42.064Z,97618.25
2022-12-08T03:28:10.030Z,97607.50
2022-12-08T03:33:38.040Z,97613.53
2022-12-08T03:39:06.052Z,97617.75
2022-12-08T03:44:34.078Z,97610.38
2022-12-08T03:49:58.066Z,97597.84
2022-12-08T03:55:23.065Z,97596.78
2022-12-08T04:00:50.039Z,97614.00
2022-12-08T04:06:16.029Z,97611.88
2022-12-08T04:11:40.036Z,97612.38
2022-12-08T04:17:08.069Z,97607.06
2022-12-08T04:22:33.054Z,97598.47
2022-12-08T04:27:58.089Z,97606.06
2022-12-08T04:33:25.026Z,97605.47
2022-12-08T04:38:50.043Z,97609.22
2022-12-08T04:44:14.095Z,97614.03
2022-12-08T04:49:42.068Z,97615.97
2022-12-08T04:55:07.342Z,97608.13
2022-12-08T05:00:32.130Z,97607.53
2022-12-08T05:06:00.094Z,97609.66
2022-12-08T05:11:26.098Z,97601.25
2022-12-08T05:16:50.141Z,97601.47
2022-12-08T05:22:18.065Z,97597.63
2022-12-08T05:27:42.079Z,97597.97
2022-12-08T05:33:07.103Z,97593.03
2022-12-08T05:38:34.090Z,97585.31
2022-12-08T05:43:59.095Z,97598.91
2022-12-08T05:49:23.098Z,97598.28
2022-12-08T05:54:51.083Z,97593.47
2022-12-08T06:00:15.148Z,97590.94
2022-12-08T06:05:42.084Z,97596.59
2022-12-08T06:11:09.077Z,97599.69
2022-12-08T06:16:35.155Z,97598.97
2022-12-08T06:21:59.115Z,97598.34
2022-12-08T06:27:27.109Z,97596.78
2022-12-08T06:32:52.109Z,97591.72
2022-12-08T06:38:17.092Z,97592.19
2022-12-08T06:43:44.085Z,97584.81
2022-12-08T06:49:09.157Z,97593.09
2022-12-08T06:54:33.166Z,97589.72
2022-12-08T07:00:01.381Z,97600.53
2022-12-08T07:05:25.157Z,97601.03
2022-12-08T07:10:51.212Z,97599.44
2022-12-08T07:16:21.218Z,97614.50
2022-12-08T07:21:46.104Z,97621.28
2022-12-08T07:27:10.138Z,97620.06
2022-12-08T07:32:39.222Z,97618.88
2022-12-08T07:38:04.122Z,97608.28
2022-12-08T07:43:29.135Z,97616.03
2022-12-08T07:48:56.146Z,97614.59
2022-12-08T07:54:22.148Z,97608.22
2022-12-08T07:59:53.123Z,97623.03
2022-12-08T08:05:22.121Z,97619.69
2022-12-08T08:10:47.150Z,97619.00
2022-12-08T08:16:13.292Z,97617.34
2022-12-08T08:21:47.153Z,97607.72
2022-12-08T08:27:14.173Z,97599.78
2022-12-08T08:32:38.176Z,97608.47
2022-12-08T08:38:06.159Z,97605.09
2022-12-08T08:43:39.197Z,97588.72
2022-12-08T08:49:04.184Z,97579.56
2022-12-08T08:54:31.165Z,97583.16
2022-12-08T09:00:02.503Z,97574.75
2022-12-08T09:05:27.168Z,97571.38
2022-12-08T09:10:54.177Z,97574.97
2022-12-08T09:16:21.263Z,97567.97
2022-12-08T09:21:45.185Z,97572.56
2022-12-08T09:27:13.161Z,97568.59
2022-12-08T09:32:37.218Z,97571.84
2022-12-08T09:38:02.206Z,97567.97
2022-12-08T09:43:43.161Z,97570.00
2022-12-08T09:49:10.171Z,97559.63
2022-12-08T09:54:37.218Z,97548.75
2022-12-08T10:00:16.190Z,97546.91
2022-12-08T10:05:49.198Z,97530.22
2022-12-08T10:11:16.165Z,97518.84
2022-12-08T10:16:49.221Z,97507.72
2022-12-08T10:22:13.206Z,97505.28
2022-12-08T10:27:38.185Z,97511.50
2022-12-08T10:33:07.236Z,97492.00
2022-12-08T10:38:36.221Z,97485.91
2022-12-08T10:44:03.200Z,97464.69
2022-12-08T10:49:39.183Z,97456.34
2022-12-08T10:55:08.198Z,97448.69
2022-12-08T11:00:36.305Z,97440.69
2022-12-08T11:06:10.498Z,97439.69
2022-12-08T11:11:49.192Z,97432.84
2022-12-08T11:17:22.265Z,97433.81
2022-12-08T11:22:52.214Z,97427.53
2022-12-08T11:28:19.209Z,97418.44
2022-12-08T11:33:44.198Z,97411.88
2022-12-08T11:39:14.245Z,97407.72
2022-12-08T11:44:48.237Z,97408.59
2022-12-08T11:50:27.256Z,97406.81
2022-12-08T11:56:00.224Z,97398.72
2022-12-08T12:01:37.975Z,97391.31
2022-12-08T12:07:37.283Z,97387.56
2022-12-08T12:13:15.222Z,97388.81
2022-12-08T12:18:52.227Z,97385.44
2022-12-08T12:24:26.063Z,97379.00
2022-12-08T12:30:02.498Z,97375.91
2022-12-08T12:35:32.301Z,97375.09
2022-12-08T12:40:58.227Z,97378.03
2022-12-08T12:46:53.277Z,97371.28
2022-12-08T12:52:58.255Z,97363.59
2022-12-08T12:58:54.279Z,97360.25
2022-12-08T13:04:20.246Z,97350.56
2022-12-08T13:09:52.252Z,97352.53
2022-12-08T13:15:27.284Z,97358.28
2022-12-08T13:20:58.233Z,97356.03
2022-12-08T13:26:34.246Z,97354.06
2022-12-08T13:32:01.267Z,97344.25
2022-12-08T13:37:39.685Z,97358.84
2022-12-08T13:43:20.272Z,97356.03
2022-12-08T13:50:32.415Z,97363.03
2022-12-08T14:00:40.296Z,97352.97
2022-12-08T14:06:13.362Z,97352.66
2022-12-08T14:11:45.278Z,97352.81
2022-12-08T14:17:16.261Z,97357.97
2022-12-08T14:22:48.284Z,97359.94
2022-12-08T14:28:14.286Z,97352.97
2022-12-08T14:33:41.335Z,97361.94
2022-12-08T14:39:07.306Z,97358.56
2022-12-08T14:44:39.294Z,97355.19
2022-12-08T14:50:07.739Z,97365.13
2022-12-08T14:55:32.295Z,97366.09
2022-12-08T15:01:01.310Z,97372.69
2022-12-08T15:06:28.454Z,97366.66
2022-12-08T15:11:53.298Z,97373.94
2022-12-08T15:17:17.294Z,97375.19
2022-12-08T15:22:45.332Z,97380.09
2022-12-08T15:28:09.321Z,97381.59
2022-12-08T15:33:35.305Z,97381.47
2022-12-08T15:39:03.372Z,97379.47
2022-12-08T15:44:28.365Z,97387.88
2022-12-08T15:49:52.385Z,97389.41
2022-12-08T15:55:22.337Z,97397.06
2022-12-08T16:00:54.663Z,97386.53
2022-12-08T16:12:25.455Z,97388.22
2022-12-08T16:17:51.377Z,97387.06
2022-12-08T16:23:34.648Z,97393.31
2022-12-08T16:29:04.428Z,97388.50
2022-12-08T16:34:28.356Z,97397.13
2022-12-08T16:39:54.394Z,97397.53
2022-12-08T16:45:24.518Z,97403.13
2022-12-08T16:50:54.359Z,97404.63
2022-12-08T16:56:18.373Z,97399.56
2022-12-08T17:01:46.323Z,97406.44
2022-12-08T17:07:10.360Z,97400.41
2022-12-08T17:12:35.369Z,97401.25
2022-12-08T17:18:03.338Z,97406.44
2022-12-08T17:23:28.351Z,97409.94
2022-12-08T17:29:00.438Z,97410.91
2022-12-08T17:34:30.367Z,97402.09
2022-12-08T17:39:55.385Z,97399.56
2022-12-08T17:45:21.362Z,97411.88
2022-12-08T17:50:49.416Z,97411.88
2022-12-08T17:56:21.445Z,97413.53
2022-12-08T18:01:46.433Z,97411.59
2022-12-08T18:07:13.389Z,97411.59
2022-12-08T18:12:38.363Z,97411.88
2022-12-08T18:18:04.381Z,97415.50
2022-12-08T18:23:32.410Z,97420.78
2022-12-08T18:28:57.402Z,97419.41
2022-12-08T18:34:22.407Z,97415.06
2022-12-08T18:39:49.408Z,97422.31
2022-12-08T18:45:27.393Z,97430.25
2022-12-08T18:50:52.420Z,97419.31
2022-12-08T18:56:19.385Z,97418.75
2022-12-08T19:01:47.412Z,97419.00
2022-12-08T19:07:12.392Z,97427.69
2022-12-08T19:12:40.403Z,97427.69
2022-12-08T19:18:04.425Z,97430.31
2022-12-08T19:23:29.408Z,97431.88
2022-12-08T19:28:56.415Z,97434.41
2022-12-08T19:34:23.442Z,97433.31
2022-12-08T19:40:01.405Z,97441.03
2022-12-08T19:45:31.519Z,97440.88
2022-12-08T19:50:56.385Z,97438.69
2022-12-08T19:56:21.550Z,97438.69
2022-12-08T20:01:50.575Z,97438.31
2022-12-08T20:07:15.447Z,97445.31
2022-12-08T20:12:40.407Z,97434.53
2022-12-08T20:18:11.444Z,97433.56
2022-12-08T20:23:37.432Z,97436.22
2022-12-08T20:29:02.533Z,97435.13
2022-12-08T20:34:33.436Z,97450.22
2022-12-08T20:40:04.466Z,97450.47
2022-12-08T20:45:30.463Z,97451.44
2022-12-08T20:50:57.612Z,97460.84
2022-12-08T20:56:26.444Z,97454.09
2022-12-08T21:01:50.531Z,97464.63
2022-12-08T21:07:19.469Z,97475.22
2022-12-08T21:12:43.613Z,97477.84
2022-12-08T21:18:08.548Z,97480.56
2022-12-08T21:23:35.618Z,97493.13
2022-12-08T21:29:01.456Z,97494.22
2022-12-08T21:34:26.656Z,97499.53
2022-12-08T21:39:54.671Z,97498.09
2022-12-08T21:45:19.494Z,97503.53
2022-12-08T21:50:44.539Z,97503.78
2022-12-08T21:56:12.648Z,97499.28
2022-12-08T22:01:43.788Z,97503.03
2022-12-08T22:07:08.510Z,97500.41
2022-12-08T22:12:35.491Z,97505.69
2022-12-08T22:18:00.609Z,97501.34
2022-12-08T22:23:24.640Z,97494.38
2022-12-08T22:28:52.693Z,97495.34
2022-12-08T22:34:16.697Z,97500.63
2022-12-08T22:39:42.559Z,97491.94
2022-12-08T22:45:09.537Z,97503.56
2022-12-08T22:50:34.719Z,97493.31
2022-12-08T22:55:59.497Z,97501.41
2022-12-08T23:01:42.559Z,97504.91
2022-12-08T23:07:07.487Z,97518.41
2022-12-08T23:12:31.518Z,97506.34
2022-12-08T23:17:59.537Z,97504.06
2022-12-08T23:23:23.519Z,97507.94
2022-12-08T23:28:48.629Z,97512.78
2022-12-08T23:34:15.530Z,97511.56
2022-12-08T23:39:41.660Z,97514.47
2022-12-08T23:45:05.527Z,97511.25
2022-12-08T23:50:33.511Z,97501.84
2022-12-08T23:55:58.708Z,97502.06
